Evadale, TX (77615)

7:40 PM CDT on August 24, 2016 (GMT -0500)
Silsbee Meteorological Center | | Change Station

Elev 85 ft 30.38 °N, 94.17 °W | Updated 21 seconds ago

Clear
Clear
85.5 °F
Feels Like 96 °F
N
0.0
Wind Variable Wind from SSE
Gusts 0.0 mph

Today
High -- | Low -- °F
--% Chance of Precip.
Yesterday
High -- | Low -- °F
Precip. -- in
Pressure 30.07 in
Visibility 10.0 miles
Clouds Clear
Heat Index 96 °F
Dew Point 77 °F
Humidity 76%
Rainfall 0.00 in
Snow Depth Not available.
6:48 AM 7:47 PM
Waning Gibbous, 51% visible
METAR KBMT 250035Z AUTO 17005KT 10SM CLR 30/24 A3007 RMK AO2 T02960241
Pressure 30.07 in
Visibility 10.0 miles
Clouds Clear
Heat Index 96 °F
Dew Point 77 °F
Humidity 76%
Rainfall 0.00 in
Snow Depth Not available.
6:48 AM 7:47 PM
Waning Gibbous, 51% visible
METAR KBMT 250035Z AUTO 17005KT 10SM CLR 30/24 A3007 RMK AO2 T02960241

10-Day Weather Forecast

Almanac

Astronomy

Aug. 24, 2016 Rise Set
Actual Time
Civil Twilight
Nautical Twilight
Astronomical Twilight
Moon
Length of Visible Light
Length of Day
Tomorrow will be .
, % of the Moon is Illuminated

Today's Extremes

State Highs State Lows

Community

WunderPhotos

Upload Photos

1,934,745 photos uploaded!

WunderBlog® & News

Nearby

Air Quality

  Air Quality AQ Index Pollutant
Not available.

Snow Depth

Station Depth Elevation

Earthquake Activity

City Distance Mag. Time & Date
Minimum magnitude displayed is 2.5.

Coastal Water Temperatures

Place Temperature

Stations

Nearby Weather Stations

Station Location Temp. Windchill Dew Point Humidity Wind Precip. Elev Updated Type
                   

Watches & Warnings

There are currently no watches in effect.